Sint-Laureins, Belgium
Current Conditions -  °F | °C
As of 12:25 AM on Sunday 26 Oct 2014 (Local Time) from EHFS Reporting Station
Overcast Overcast  
Wind Chill: 55°   Ceiling: 4500
Heat Index: 55°   Visibility: 6mi
Dew Point: 50°   Wind: 15mph
Humidity: 82%   Direction: 210°SSW
Pressure: 30.18"   Gusts: NA
Location:  51.24°N, 3.52°E
Report Text: EHFS 252225Z AUTO 21013KT 9999 OVC045/// 13/10 Q1022
Loading
Personal Weather Stations






























Interactive Weather Map
Tropical Storm Tracking
New forecast layout! Learn more

10-Day Weather Forecast

Advertisements
Track Severe Weather on mobile